Dakar, Senegal

8:19 PM GMT on September 03, 2015 (GMT +0000)
Ngor Almadies | | Change Station
CLOSE
Current Station
Personal Weather Station
Location: Dakar, DAKAR
Elevation: 46 ft
Nearby Weather Stations

Elev 46 ft 14.74 °N, 17.51 °W | Updated 3 seconds ago

Overcast
Overcast
83.6 °F
Feels Like 93 °F
N
3.0
Wind Variable Wind from NNW
Gusts 7.0 mph

Today
High -- | Low -- °F
--% Chance of Precip.
Yesterday
High -- | Low -- °F
Precip. -- in
6:57 AM 7:20 PM
Waning Gibbous, 67% visible
Pressure 29.89 in
Visibility 6.2 miles
Clouds Scattered Clouds 800 ft
Few 3000 ft
Scattered Clouds 13000 ft
Heat Index 93 °F
Dew Point 77 °F
Humidity 81%
Rainfall 0.00 in
Snow Depth Not available.
UV 0 out of 12
Pollen Not available.
Air Quality Not available.
Flu Activity Not available.
METAR GOOY 032000Z 33007KT 9999 TS SCT008 FEW030CB SCT130 28/24 Q1012 BECMG 10010G30KT 4000 SQ TSRA
Pressure 29.89 in
Visibility 6.2 miles
Clouds Scattered Clouds 800 ft
Few 3000 ft
Scattered Clouds 13000 ft
Heat Index 93 °F
Dew Point 77 °F
Humidity 81%
Rainfall 0.00 in
Snow Depth Not available.
UV 0 out of 12
Pollen Not available.
Air Quality Not available.
Flu Activity Not available.
METAR GOOY 032000Z 33007KT 9999 TS SCT008 FEW030CB SCT130 28/24 Q1012 BECMG 10010G30KT 4000 SQ TSRA

10-Day Weather Forecast

×

Almanac

Astronomy

Sep. 03, 2015 Rise Set
Actual Time
Civil Twilight
Nautical Twilight
Astronomical Twilight
Moon
Length of Visible Light
Length of Day
Tomorrow will be .
, % of the Moon is Illuminated

Today's Extremes

Country Highs Country Lows

Community

WunderPhotos

Upload Photos

1,852,019 photos uploaded!

WunderBlogs® & News

Nearby

Air Quality

  Air Quality AQ Index Pollutant
Not available.

Snow Depth

Station Depth Elevation

Earthquake Activity

City Distance Mag. Time & Date
Minimum magnitude displayed is 2.5.

Coastal Water Temperatures

Place Temperature

Stations

Nearby Weather Stations

Station Location Temp. Windchill Dew Point Humidity Wind Precip. Elev Updated Type